KSUS/SUS METAR and TAF weather

Enter ICAO airport designator
Station Type Date Time Source
KSUS METAR 2018/12/10 01:54 UTC NOAA

KSUS 100154Z 01003KT 10SM CLR M03/M07 A3033 RMK AO2 SLP281 T10281067


Station Type Date Time Source
KSUS Decoded METAR 2018/12/10 01:54 UTC NOAA

SPIRIT OF ST. LOUIS AIRPORT , MO, United States (KSUS) 38-39N 090-39W 141M
Dec 09, 2018 - 08:54 PM EST / 2018.12.10 0154 UTC
Wind: from the N (010 degrees) at 3 MPH (3 KT):0
Visibility: 10 mile(s):0
Sky conditions: clear
Temperature: 27.0 F (-2.8 C)
Dew Point: 19.9 F (-6.7 C)
Relative Humidity: 74%
Pressure (altimeter): 30.33 in. Hg (1027 hPa)
ob: KSUS 100154Z 01003KT 10SM CLR M03/M07 A3033 RMK AO2 SLP281 T10281067
cycle: 2

Station Type Date Time Source
KSUS TAF 2018/12/09 18:39 UTC NOAA

TAF KSUS 091736Z 0918/1018 36005KT P6SM SKC
FM100300 00000KT P6SM FEW250


Example: see airport list